createdAt,value
2023-01-13T00:01:00.914Z,92.90
2023-01-13T00:03:28.959Z,93.40
2023-01-13T00:05:59.902Z,93.40
2023-01-13T00:08:27.995Z,93.30
2023-01-13T00:10:57.458Z,92.90
2023-01-13T00:13:27.646Z,93.60
2023-01-13T00:15:59.074Z,93.30
2023-01-13T00:18:27.235Z,91.30
2023-01-13T00:21:01.824Z,93.00
2023-01-13T00:23:30.507Z,91.30
2023-01-13T00:26:01.055Z,93.30
2023-01-13T00:28:29.399Z,93.20
2023-01-13T00:30:58.555Z,92.80
2023-01-13T00:33:26.721Z,93.10
2023-01-13T00:35:58.576Z,93.20
2023-01-13T00:38:26.829Z,91.20
2023-01-13T00:40:58.229Z,92.90
2023-01-13T00:43:27.175Z,91.40
2023-01-13T00:45:55.507Z,93.40
2023-01-13T00:48:24.286Z,93.10
2023-01-13T00:50:56.251Z,92.90
2023-01-13T00:53:24.325Z,93.10
2023-01-13T00:55:59.584Z,93.40
2023-01-13T00:58:29.175Z,93.30
2023-01-13T01:01:00.678Z,93.30
2023-01-13T01:03:29.347Z,93.30
2023-01-13T01:05:57.438Z,93.10
2023-01-13T01:08:25.535Z,93.10
2023-01-13T01:11:01.444Z,92.80
2023-01-13T01:13:31.146Z,92.70
2023-01-13T01:15:59.566Z,93.20
2023-01-13T01:18:27.643Z,93.30
2023-01-13T01:20:55.705Z,92.80
2023-01-13T01:23:23.899Z,93.20
2023-01-13T01:25:52.035Z,93.00
2023-01-13T01:28:20.689Z,92.80
2023-01-13T01:30:51.328Z,92.50
2023-01-13T01:33:19.411Z,92.90
2023-01-13T01:35:47.421Z,92.90
2023-01-13T01:38:15.553Z,92.90
2023-01-13T01:40:43.599Z,92.60
2023-01-13T01:43:32.869Z,92.70
2023-01-13T01:46:02.572Z,92.80
2023-01-13T01:48:32.071Z,92.90
2023-01-13T01:51:00.349Z,92.60
2023-01-13T01:53:29.262Z,93.00
2023-01-13T01:55:58.309Z,92.60
2023-01-13T01:58:29.405Z,92.80
2023-01-13T02:00:57.537Z,92.20
2023-01-13T02:03:27.159Z,92.80
2023-01-13T02:05:55.242Z,92.90
2023-01-13T02:08:23.661Z,92.80
2023-01-13T02:10:54.160Z,92.30
2023-01-13T02:13:23.147Z,92.50
2023-01-13T02:15:56.099Z,92.80
2023-01-13T02:18:38.401Z,92.90
2023-01-13T02:21:25.170Z,92.40
2023-01-13T02:24:19.187Z,92.80
2023-01-13T02:27:08.769Z,92.90
2023-01-13T02:30:06.426Z,92.40
2023-01-13T02:32:35.479Z,90.80
2023-01-13T02:35:06.177Z,92.60
2023-01-13T02:37:37.180Z,94.10
2023-01-13T02:40:09.407Z,92.30
2023-01-13T02:42:56.977Z,92.70
2023-01-13T02:45:29.063Z,92.60
2023-01-13T02:47:58.749Z,92.70
2023-01-13T02:50:30.451Z,92.20
2023-01-13T02:52:59.688Z,92.90
2023-01-13T02:55:30.417Z,92.90
2023-01-13T02:57:59.726Z,93.10
2023-01-13T03:00:29.423Z,92.60
2023-01-13T03:02:58.087Z,93.10
2023-01-13T03:05:26.779Z,92.90
2023-01-13T03:08:01.822Z,92.90
2023-01-13T03:10:47.567Z,92.60
2023-01-13T03:13:21.597Z,91.00
2023-01-13T03:15:55.727Z,92.50
2023-01-13T03:18:33.685Z,92.60
2023-01-13T03:21:06.093Z,92.70
2023-01-13T03:23:36.850Z,92.90
2023-01-13T03:26:07.389Z,92.90
2023-01-13T03:28:38.582Z,91.80
2023-01-13T03:31:10.793Z,92.90
2023-01-13T03:33:45.364Z,93.10
2023-01-13T03:36:15.042Z,92.70
2023-01-13T03:38:44.570Z,92.40
2023-01-13T03:41:15.871Z,92.90
2023-01-13T03:44:05.143Z,92.80
2023-01-13T03:46:37.682Z,92.90
2023-01-13T03:49:07.311Z,92.70
2023-01-13T03:51:36.990Z,93.00
2023-01-13T03:54:09.032Z,93.30
2023-01-13T03:56:39.489Z,93.20
2023-01-13T03:59:08.675Z,93.00
2023-01-13T04:01:42.772Z,93.00
2023-01-13T04:04:14.008Z,93.10
2023-01-13T04:06:47.445Z,92.80
2023-01-13T04:09:19.948Z,92.40
2023-01-13T04:11:50.411Z,92.90
2023-01-13T04:14:20.515Z,92.80
2023-01-13T04:16:50.065Z,92.50
2023-01-13T04:19:18.156Z,92.20
2023-01-13T04:21:46.187Z,92.40
2023-01-13T04:24:14.414Z,92.10
2023-01-13T04:26:42.499Z,91.70
2023-01-13T04:29:10.606Z,91.30
2023-01-13T04:31:39.242Z,91.40
2023-01-13T04:34:08.700Z,91.70
2023-01-13T04:36:36.778Z,91.70
2023-01-13T04:39:05.214Z,91.20
2023-01-13T04:41:53.902Z,91.70
2023-01-13T04:44:21.984Z,91.50
2023-01-13T04:46:50.113Z,91.50
2023-01-13T04:49:19.544Z,90.60
2023-01-13T04:51:47.687Z,91.40
2023-01-13T04:54:16.255Z,91.20
2023-01-13T04:56:44.326Z,90.90
2023-01-13T04:59:13.415Z,90.40
2023-01-13T05:01:41.637Z,90.50
2023-01-13T05:04:09.967Z,91.30
2023-01-13T05:06:39.396Z,91.10
2023-01-13T05:09:07.504Z,91.70
2023-01-13T05:11:53.257Z,92.60
2023-01-13T05:14:38.811Z,92.40
2023-01-13T05:17:06.952Z,92.40
2023-01-13T05:19:36.118Z,93.00
2023-01-13T05:22:23.382Z,93.10
2023-01-13T05:25:08.893Z,93.10
2023-01-13T05:27:36.948Z,92.10
2023-01-13T05:30:05.487Z,93.00
2023-01-13T05:32:33.535Z,92.80
2023-01-13T05:35:01.641Z,93.60
2023-01-13T05:37:31.179Z,93.30
2023-01-13T05:40:16.941Z,92.60
2023-01-13T05:43:02.989Z,92.30
2023-01-13T05:45:31.748Z,92.70
2023-01-13T05:47:59.962Z,92.90
2023-01-13T05:50:28.125Z,92.60
2023-01-13T05:52:57.788Z,92.90
2023-01-13T05:55:25.853Z,92.90
2023-01-13T05:57:53.968Z,93.00
2023-01-13T06:00:22.243Z,92.70
2023-01-13T06:02:50.385Z,92.50
2023-01-13T06:05:18.498Z,93.10
2023-01-13T06:07:46.608Z,92.80
2023-01-13T06:10:16.124Z,92.60
2023-01-13T06:12:44.296Z,93.20
2023-01-13T06:15:12.588Z,93.20
2023-01-13T06:17:40.634Z,92.70
2023-01-13T06:20:09.473Z,92.90
2023-01-13T06:22:39.879Z,92.70
2023-01-13T06:25:11.121Z,93.30
2023-01-13T06:27:41.125Z,92.60
2023-01-13T06:30:10.042Z,92.90
2023-01-13T06:32:40.535Z,92.90
2023-01-13T06:35:10.609Z,93.20
2023-01-13T06:37:39.004Z,93.60
2023-01-13T06:40:08.057Z,93.20
2023-01-13T06:42:55.320Z,93.20
2023-01-13T06:45:26.525Z,93.50
2023-01-13T06:47:57.031Z,93.20
2023-01-13T06:50:25.155Z,93.50
2023-01-13T06:52:53.173Z,93.80
2023-01-13T06:55:21.435Z,93.90
2023-01-13T06:57:50.177Z,93.80
2023-01-13T07:00:18.593Z,93.70
2023-01-13T07:02:48.176Z,93.70
2023-01-13T07:05:16.928Z,93.90
2023-01-13T07:07:45.197Z,93.70
2023-01-13T07:10:22.310Z,93.30
2023-01-13T07:13:08.427Z,93.60
2023-01-13T07:15:36.897Z,93.80
2023-01-13T07:18:06.501Z,93.90
2023-01-13T07:20:34.586Z,93.70
2023-01-13T07:23:02.686Z,94.00
2023-01-13T07:25:32.435Z,93.80
2023-01-13T07:28:00.601Z,93.90
2023-01-13T07:30:28.754Z,93.50
2023-01-13T07:32:57.128Z,93.50
2023-01-13T07:35:26.636Z,93.80
2023-01-13T07:37:54.717Z,94.00
2023-01-13T07:40:22.912Z,93.60
2023-01-13T07:43:08.969Z,93.90
2023-01-13T07:45:37.223Z,92.70
2023-01-13T07:48:05.660Z,93.60
2023-01-13T07:50:35.085Z,93.80
2023-01-13T07:53:03.164Z,94.00
2023-01-13T07:55:31.224Z,93.80
2023-01-13T07:57:59.337Z,93.90
2023-01-13T08:00:27.539Z,93.30
2023-01-13T08:02:55.730Z,93.70
2023-01-13T08:05:23.834Z,93.20
2023-01-13T08:07:53.507Z,93.20
2023-01-13T08:10:21.598Z,93.20
2023-01-13T08:13:07.321Z,93.30
2023-01-13T08:15:38.198Z,92.50
2023-01-13T08:18:06.248Z,92.50
2023-01-13T08:20:34.767Z,92.80
2023-01-13T08:23:07.009Z,93.00
2023-01-13T08:25:35.408Z,92.80
2023-01-13T08:28:03.519Z,92.90
2023-01-13T08:30:31.749Z,92.90
2023-01-13T08:33:00.032Z,93.30
2023-01-13T08:35:28.146Z,93.60
2023-01-13T08:37:56.377Z,93.60
2023-01-13T08:40:25.940Z,92.90
2023-01-13T08:42:56.261Z,93.60
2023-01-13T08:45:24.506Z,93.70
2023-01-13T08:47:52.754Z,92.60
2023-01-13T08:50:21.260Z,92.90
2023-01-13T08:52:49.297Z,93.00
2023-01-13T08:55:17.477Z,93.70
2023-01-13T08:57:47.009Z,93.90
2023-01-13T09:00:17.355Z,93.40
2023-01-13T09:02:45.724Z,93.60
2023-01-13T09:05:15.123Z,94.20
2023-01-13T09:07:44.342Z,93.80
2023-01-13T09:10:12.493Z,93.20
2023-01-13T09:12:58.125Z,93.40
2023-01-13T09:15:27.699Z,92.30
2023-01-13T09:17:55.843Z,93.50
2023-01-13T09:20:24.049Z,92.90
2023-01-13T09:22:52.127Z,92.60
2023-01-13T09:25:20.326Z,92.40
2023-01-13T09:27:48.459Z,92.60
2023-01-13T09:30:16.713Z,92.70
2023-01-13T09:32:46.089Z,92.60
2023-01-13T09:35:13.243Z,92.90
2023-01-13T09:37:42.054Z,92.10
2023-01-13T09:40:14.050Z,92.30
2023-01-13T09:43:02.046Z,91.50
2023-01-13T09:45:32.769Z,92.50
2023-01-13T09:48:05.589Z,92.50
2023-01-13T09:50:45.965Z,92.30
2023-01-13T09:53:16.280Z,90.80
2023-01-13T09:55:45.458Z,92.80
2023-01-13T09:58:14.775Z,92.40
2023-01-13T10:00:47.154Z,94.80
2023-01-13T10:03:27.635Z,93.10
2023-01-13T10:05:57.645Z,93.20
2023-01-13T10:08:27.014Z,95.60
2023-01-13T10:10:56.288Z,98.60
2023-01-13T10:13:24.695Z,99.90
2023-01-13T10:16:12.661Z,99.90
2023-01-13T10:18:46.271Z,99.90
2023-01-13T10:21:21.148Z,99.90
2023-01-13T10:23:53.419Z,99.90
2023-01-13T10:26:36.494Z,99.90
2023-01-13T10:29:04.597Z,99.90
2023-01-13T10:31:32.716Z,99.90
2023-01-13T10:34:04.025Z,99.90
2023-01-13T10:36:32.208Z,99.90
2023-01-13T10:39:09.098Z,99.90
2023-01-13T10:41:37.341Z,99.90
2023-01-13T10:44:08.570Z,99.90
2023-01-13T10:46:51.714Z,99.90
2023-01-13T10:49:28.645Z,99.90
2023-01-13T10:51:56.888Z,99.90
2023-01-13T10:54:26.349Z,99.90
2023-01-13T10:57:09.255Z,99.90
2023-01-13T10:59:37.405Z,99.90
2023-01-13T11:02:25.291Z,99.90
2023-01-13T11:07:40.395Z,97.30
2023-01-13T11:10:17.608Z,97.10
2023-01-13T11:12:50.724Z,95.70
2023-01-13T11:15:21.405Z,97.50
2023-01-13T11:18:00.416Z,97.90
2023-01-13T11:20:32.617Z,98.00
2023-01-13T11:23:04.107Z,98.60
2023-01-13T11:25:35.264Z,98.70
2023-01-13T11:28:06.525Z,99.10
2023-01-13T11:30:39.936Z,99.90
2023-01-13T11:33:18.222Z,99.90
2023-01-13T11:35:48.764Z,99.90
2023-01-13T11:38:21.547Z,99.90
2023-01-13T11:40:50.532Z,99.90
2023-01-13T11:43:21.655Z,99.90
2023-01-13T11:45:51.756Z,99.90
2023-01-13T11:48:22.213Z,99.90
2023-01-13T11:50:53.909Z,99.90
2023-01-13T11:53:30.815Z,99.90
2023-01-13T11:56:07.639Z,99.90
2023-01-13T11:58:53.377Z,99.90
2023-01-13T12:01:27.355Z,99.70
2023-01-13T12:04:00.719Z,99.90
2023-01-13T12:06:33.663Z,99.90
2023-01-13T12:09:14.581Z,99.90
2023-01-13T12:12:05.784Z,99.90
2023-01-13T12:14:39.676Z,99.90
2023-01-13T12:17:10.742Z,99.90
2023-01-13T12:19:39.040Z,99.90
2023-01-13T12:22:12.265Z,99.90
2023-01-13T12:24:45.844Z,99.90
2023-01-13T12:27:16.925Z,99.90
2023-01-13T12:29:45.591Z,99.90
2023-01-13T12:32:15.786Z,99.90
2023-01-13T12:34:48.859Z,99.90
2023-01-13T12:37:21.495Z,99.90
2023-01-13T12:40:00.164Z,99.90
2023-01-13T12:42:51.971Z,99.90
2023-01-13T12:45:28.592Z,99.90
2023-01-13T12:47:57.075Z,99.90
2023-01-13T12:50:49.126Z,99.90
2023-01-13T12:53:40.921Z,99.90
2023-01-13T12:56:26.990Z,99.90
2023-01-13T12:59:23.670Z,99.90
2023-01-13T13:02:12.153Z,99.90
2023-01-13T13:04:44.611Z,99.90
2023-01-13T13:07:15.973Z,98.60
2023-01-13T13:09:45.159Z,99.10
2023-01-13T13:12:49.601Z,98.80
2023-01-13T13:15:22.810Z,97.00
2023-01-13T13:18:02.582Z,97.40
2023-01-13T13:20:53.888Z,98.70
2023-01-13T13:23:37.939Z,98.10
2023-01-13T13:26:08.166Z,96.70
2023-01-13T13:31:15.477Z,97.00
2023-01-13T13:33:51.348Z,97.70
2023-01-13T13:36:40.345Z,97.50
2023-01-13T13:39:34.265Z,97.20
2023-01-13T13:42:37.363Z,97.60
2023-01-13T13:45:32.548Z,97.20
2023-01-13T13:48:03.292Z,97.20
2023-01-13T13:50:35.289Z,97.20
2023-01-13T13:53:05.504Z,97.20
2023-01-13T13:58:02.637Z,94.80
2023-01-13T14:00:32.062Z,96.50
2023-01-13T14:03:01.676Z,96.90
2023-01-13T14:05:32.290Z,96.50
2023-01-13T14:08:01.409Z,97.00
2023-01-13T14:10:31.009Z,95.70
2023-01-13T14:13:00.841Z,96.00
2023-01-13T14:15:32.226Z,95.90
2023-01-13T14:18:01.394Z,95.80
2023-01-13T14:20:30.070Z,97.00
2023-01-13T14:23:01.736Z,98.00
2023-01-13T14:25:31.596Z,98.60
2023-01-13T14:28:00.971Z,98.90
2023-01-13T14:30:29.243Z,99.10
2023-01-13T14:32:57.509Z,99.50
2023-01-13T14:35:25.696Z,99.90
2023-01-13T14:38:02.448Z,99.90
2023-01-13T14:40:47.486Z,98.30
2023-01-13T14:43:17.766Z,96.50
2023-01-13T14:45:55.197Z,98.70
2023-01-13T14:48:23.958Z,98.60
2023-01-13T14:50:52.098Z,98.30
2023-01-13T14:53:27.690Z,97.90
2023-01-13T14:55:58.656Z,97.70
2023-01-13T14:58:29.327Z,98.50
2023-01-13T15:01:15.918Z,97.80
2023-01-13T15:03:44.110Z,96.50
2023-01-13T15:06:23.615Z,98.10
2023-01-13T15:08:51.780Z,97.90
2023-01-13T15:11:25.035Z,98.40
2023-01-13T15:13:57.908Z,98.40
2023-01-13T15:16:26.646Z,98.40
2023-01-13T15:18:55.097Z,98.00
2023-01-13T15:21:23.767Z,97.90
2023-01-13T15:23:51.969Z,98.40
2023-01-13T15:26:23.115Z,98.50
2023-01-13T15:28:52.005Z,98.70
2023-01-13T15:31:20.537Z,98.90
2023-01-13T15:33:48.673Z,99.10
2023-01-13T15:36:24.408Z,98.80
2023-01-13T15:38:52.596Z,98.70
2023-01-13T15:41:42.913Z,99.10
2023-01-13T15:44:29.512Z,98.40
2023-01-13T15:46:57.938Z,99.20
2023-01-13T15:49:27.998Z,98.90
2023-01-13T15:51:56.282Z,98.80
2023-01-13T15:54:24.789Z,99.30
2023-01-13T15:56:54.534Z,99.00
2023-01-13T15:59:23.449Z,98.90
2023-01-13T16:01:51.565Z,98.90
2023-01-13T16:04:19.743Z,98.90
2023-01-13T16:06:48.292Z,99.30
2023-01-13T16:09:16.934Z,98.90
2023-01-13T16:11:45.123Z,99.10
2023-01-13T16:14:14.549Z,98.80
2023-01-13T16:16:42.693Z,99.50
2023-01-13T16:19:11.638Z,99.20
2023-01-13T16:21:40.427Z,99.30
2023-01-13T16:24:08.580Z,99.10
2023-01-13T16:26:38.958Z,99.50
2023-01-13T16:29:07.764Z,99.20
2023-01-13T16:31:37.471Z,99.50
2023-01-13T16:34:06.607Z,99.50
2023-01-13T16:36:36.247Z,99.60
2023-01-13T16:39:04.841Z,99.20
2023-01-13T16:41:34.645Z,99.60
2023-01-13T16:44:06.105Z,99.60
2023-01-13T16:46:34.585Z,99.90
2023-01-13T16:49:05.864Z,99.50
2023-01-13T16:51:34.427Z,99.90
2023-01-13T16:54:02.541Z,99.90
2023-01-13T16:56:31.630Z,99.90
2023-01-13T16:59:01.341Z,99.80
2023-01-13T17:01:30.519Z,99.80
2023-01-13T17:03:58.884Z,99.20
2023-01-13T17:06:30.115Z,99.60
2023-01-13T17:09:01.210Z,99.60
2023-01-13T17:11:29.379Z,99.90
2023-01-13T17:13:57.445Z,99.90
2023-01-13T17:16:26.255Z,99.90
2023-01-13T17:18:54.568Z,99.50
2023-01-13T17:21:22.661Z,99.80
2023-01-13T17:23:52.678Z,99.70
2023-01-13T17:26:32.124Z,99.60
2023-01-13T17:29:01.105Z,99.50
2023-01-13T17:31:29.822Z,99.80
2023-01-13T17:33:58.006Z,99.80
2023-01-13T17:36:26.210Z,99.70
2023-01-13T17:38:55.815Z,99.30
2023-01-13T17:41:24.127Z,99.80
2023-01-13T17:43:53.166Z,99.60
2023-01-13T17:46:23.066Z,99.70
2023-01-13T17:48:52.685Z,99.50
2023-01-13T17:51:22.526Z,99.70
2023-01-13T17:53:51.140Z,99.70
2023-01-13T17:56:20.596Z,99.40
2023-01-13T17:58:48.667Z,99.70
2023-01-13T18:01:18.632Z,99.90
2023-01-13T18:03:47.270Z,99.90
2023-01-13T18:06:17.087Z,99.90
2023-01-13T18:08:45.482Z,99.30
2023-01-13T18:11:13.905Z,99.90
2023-01-13T18:13:43.426Z,99.20
2023-01-13T18:16:11.961Z,99.90
2023-01-13T18:18:40.612Z,99.70
2023-01-13T18:21:26.905Z,99.90
2023-01-13T18:24:12.607Z,99.90
2023-01-13T18:26:58.216Z,98.90
2023-01-13T18:29:27.708Z,99.50
2023-01-13T18:31:55.867Z,99.90
2023-01-13T18:34:23.963Z,99.90
2023-01-13T18:36:52.393Z,99.70
2023-01-13T18:39:20.582Z,99.60
2023-01-13T18:42:06.177Z,99.70
2023-01-13T18:44:35.601Z,99.00
2023-01-13T18:47:03.589Z,99.90
2023-01-13T18:49:31.667Z,99.40
2023-01-13T18:51:59.712Z,99.90
2023-01-13T18:54:27.822Z,99.40
2023-01-13T18:56:56.823Z,99.20
2023-01-13T18:59:24.957Z,98.60
2023-01-13T19:01:54.426Z,98.90
2023-01-13T19:04:22.545Z,98.60
2023-01-13T19:06:51.834Z,98.60
2023-01-13T19:09:22.703Z,98.00
2023-01-13T19:11:51.558Z,98.40
2023-01-13T19:17:15.411Z,97.70
2023-01-13T19:19:44.536Z,97.40
2023-01-13T19:22:13.075Z,98.20
2023-01-13T19:24:42.087Z,98.50
2023-01-13T19:27:10.660Z,97.30
2023-01-13T19:29:38.732Z,96.10
2023-01-13T19:32:15.914Z,95.80
2023-01-13T19:34:44.376Z,96.30
2023-01-13T19:37:12.443Z,95.60
2023-01-13T19:39:40.777Z,95.30
2023-01-13T19:42:26.499Z,95.10
2023-01-13T19:45:11.785Z,94.40
2023-01-13T19:47:41.485Z,94.40
2023-01-13T19:50:10.236Z,95.20
2023-01-13T19:52:38.320Z,94.60
2023-01-13T19:55:06.743Z,95.50
2023-01-13T19:57:34.907Z,95.20
2023-01-13T20:00:04.223Z,94.80
2023-01-13T20:02:47.921Z,95.00
2023-01-13T20:05:18.249Z,95.60
2023-01-13T20:07:46.427Z,95.10
2023-01-13T20:10:14.530Z,95.10
2023-01-13T20:12:42.853Z,95.30
2023-01-13T20:15:11.268Z,95.20
2023-01-13T20:17:40.623Z,95.20
2023-01-13T20:20:11.989Z,95.30
2023-01-13T20:22:40.356Z,94.70
2023-01-13T20:25:08.906Z,95.80
2023-01-13T20:27:37.595Z,95.60
2023-01-13T20:30:06.230Z,95.80
2023-01-13T20:32:34.370Z,95.80
2023-01-13T20:35:02.479Z,96.90
2023-01-13T20:37:32.031Z,97.30
2023-01-13T20:40:01.823Z,97.80
2023-01-13T20:42:29.194Z,98.10
2023-01-13T20:44:57.676Z,98.10
2023-01-13T20:47:25.889Z,98.30
2023-01-13T20:49:54.067Z,98.30
2023-01-13T20:52:22.160Z,98.40
2023-01-13T20:54:51.808Z,98.40
2023-01-13T20:57:19.927Z,98.00
2023-01-13T20:59:48.039Z,98.20
2023-01-13T21:02:17.328Z,98.60
2023-01-13T21:04:45.453Z,98.50
2023-01-13T21:07:13.702Z,98.80
2023-01-13T21:09:41.824Z,98.40
2023-01-13T21:12:32.276Z,98.60
2023-01-13T21:15:18.460Z,98.80
2023-01-13T21:18:04.924Z,97.50
2023-01-13T21:20:34.252Z,98.00
2023-01-13T21:23:03.080Z,98.30
2023-01-13T21:25:33.507Z,98.10
2023-01-13T21:28:07.591Z,98.50
2023-01-13T21:30:36.093Z,97.40
2023-01-13T21:33:06.170Z,97.30
2023-01-13T21:35:34.420Z,97.70
2023-01-13T21:38:02.439Z,97.50
2023-01-13T21:40:30.633Z,97.40
2023-01-13T21:43:16.117Z,97.30
2023-01-13T21:46:05.407Z,96.70
2023-01-13T21:48:33.704Z,97.60
2023-01-13T21:51:02.216Z,97.10
2023-01-13T21:53:30.262Z,97.30
2023-01-13T21:55:58.325Z,97.50
2023-01-13T21:58:26.350Z,97.70
2023-01-13T22:00:56.113Z,97.50
2023-01-13T22:03:24.356Z,97.80
2023-01-13T22:05:55.790Z,97.60
2023-01-13T22:08:23.888Z,95.70
2023-01-13T22:10:57.819Z,97.40
2023-01-13T22:13:43.726Z,97.50
2023-01-13T22:16:13.379Z,97.40
2023-01-13T22:18:41.438Z,97.10
2023-01-13T22:21:09.595Z,97.30
2023-01-13T22:23:37.743Z,97.30
2023-01-13T22:26:06.941Z,97.20
2023-01-13T22:28:40.851Z,97.10
2023-01-13T22:31:09.428Z,96.80
2023-01-13T22:33:39.253Z,97.40
2023-01-13T22:36:07.901Z,97.20
2023-01-13T22:38:35.964Z,96.70
2023-01-13T22:41:05.059Z,96.90
2023-01-13T22:43:33.405Z,97.20
2023-01-13T22:46:02.278Z,97.30
2023-01-13T22:48:30.462Z,97.10
2023-01-13T22:51:04.499Z,96.80
2023-01-13T22:53:32.644Z,97.10
2023-01-13T22:56:00.905Z,97.00
2023-01-13T22:58:29.500Z,97.20
2023-01-13T23:00:58.091Z,96.90
2023-01-13T23:03:26.346Z,96.80
2023-01-13T23:05:59.556Z,97.10
2023-01-13T23:08:27.664Z,96.00
2023-01-13T23:11:00.893Z,96.80
2023-01-13T23:13:29.120Z,97.00
2023-01-13T23:15:57.183Z,97.10
2023-01-13T23:18:25.869Z,97.30
2023-01-13T23:20:54.189Z,97.00
2023-01-13T23:23:24.489Z,96.90
2023-01-13T23:25:55.312Z,96.80
2023-01-13T23:28:23.474Z,97.00
2023-01-13T23:30:53.703Z,97.00
2023-01-13T23:33:21.980Z,97.10
2023-01-13T23:35:56.123Z,96.90
2023-01-13T23:38:25.754Z,97.00
2023-01-13T23:40:53.882Z,96.60
2023-01-13T23:43:22.003Z,96.90
2023-01-13T23:45:50.252Z,96.90
2023-01-13T23:48:18.697Z,96.50
2023-01-13T23:50:57.064Z,96.60
2023-01-13T23:53:31.038Z,96.80
2023-01-13T23:55:59.479Z,96.70
2023-01-13T23:58:27.671Z,96.80
